createdAt,value
2019-02-17T00:01:18.708Z,1.90
2019-02-17T00:03:47.481Z,1.88
2019-02-17T00:06:16.299Z,1.91
2019-02-17T00:08:45.090Z,2.10
2019-02-17T00:11:13.898Z,2.28
2019-02-17T00:13:42.684Z,2.37
2019-02-17T00:16:11.495Z,2.26
2019-02-17T00:18:40.284Z,2.13
2019-02-17T00:21:09.086Z,2.11
2019-02-17T00:23:37.864Z,2.15
2019-02-17T00:26:06.740Z,2.24
2019-02-17T00:28:35.539Z,2.47
2019-02-17T00:31:04.472Z,2.38
2019-02-17T00:33:33.335Z,2.26
2019-02-17T00:36:02.116Z,2.10
2019-02-17T00:38:30.902Z,1.87
2019-02-17T00:40:59.712Z,1.72
2019-02-17T00:43:28.576Z,1.64
2019-02-17T00:45:57.368Z,1.59
2019-02-17T00:48:26.599Z,1.60
2019-02-17T00:50:55.560Z,1.66
2019-02-17T00:53:24.435Z,1.58
2019-02-17T00:55:53.296Z,1.69
2019-02-17T00:58:22.121Z,1.74
2019-02-17T01:00:50.965Z,1.71
2019-02-17T01:03:19.778Z,1.71
2019-02-17T01:05:48.561Z,1.67
2019-02-17T01:08:17.412Z,1.60
2019-02-17T01:10:46.303Z,1.68
2019-02-17T01:13:15.117Z,1.58
2019-02-17T01:15:43.891Z,1.71
2019-02-17T01:18:12.709Z,1.76
2019-02-17T01:20:41.552Z,1.91
2019-02-17T01:23:10.415Z,1.71
2019-02-17T01:25:39.280Z,1.55
2019-02-17T01:28:08.142Z,1.42
2019-02-17T01:30:36.982Z,1.36
2019-02-17T01:33:05.924Z,1.35
2019-02-17T01:35:34.739Z,1.46
2019-02-17T01:38:03.598Z,1.56
2019-02-17T01:40:32.392Z,1.48
2019-02-17T01:43:01.191Z,1.13
2019-02-17T01:45:30.130Z,1.07
2019-02-17T01:47:58.932Z,1.07
2019-02-17T01:50:28.734Z,1.09
2019-02-17T01:52:57.537Z,0.97
2019-02-17T01:55:26.335Z,0.87
2019-02-17T01:57:55.147Z,0.69
2019-02-17T02:00:24.105Z,0.51
2019-02-17T02:02:52.904Z,0.25
2019-02-17T02:05:21.873Z,0.15
2019-02-17T02:07:50.751Z,0.11
2019-02-17T02:10:19.668Z,0.04
2019-02-17T02:12:48.579Z,-0.02
2019-02-17T02:15:17.447Z,-0.07
2019-02-17T02:17:46.338Z,-0.17
2019-02-17T02:20:15.319Z,-0.12
2019-02-17T02:22:44.176Z,0.02
2019-02-17T02:25:13.002Z,0.02
2019-02-17T02:27:41.798Z,0.22
2019-02-17T02:30:11.833Z,0.34
2019-02-17T02:32:40.770Z,0.35
2019-02-17T02:35:09.722Z,0.28
2019-02-17T02:37:38.507Z,0.21
2019-02-17T02:40:07.482Z,0.10
2019-02-17T02:42:36.282Z,0.09
2019-02-17T02:45:05.768Z,-0.07
2019-02-17T02:47:34.551Z,-0.04
2019-02-17T02:50:03.448Z,-0.01
2019-02-17T02:52:32.263Z,-0.09
2019-02-17T02:55:01.087Z,-0.15
2019-02-17T02:57:29.900Z,-0.19
2019-02-17T02:59:58.813Z,-0.34
2019-02-17T03:02:27.604Z,-0.38
2019-02-17T03:04:56.410Z,-0.50
2019-02-17T03:07:25.289Z,-0.57
2019-02-17T03:09:54.097Z,-0.57
2019-02-17T03:12:22.978Z,-0.53
2019-02-17T03:14:51.866Z,-0.55
2019-02-17T03:17:20.674Z,-0.63
2019-02-17T03:19:49.556Z,-0.56
2019-02-17T03:22:18.347Z,-0.55
2019-02-17T03:24:47.253Z,-0.52
2019-02-17T03:27:16.016Z,-0.41
2019-02-17T03:29:44.840Z,-0.34
2019-02-17T03:32:13.635Z,-0.37
2019-02-17T03:34:42.519Z,-0.48
2019-02-17T03:37:11.316Z,-0.45
2019-02-17T03:39:40.340Z,-0.52
2019-02-17T03:42:09.214Z,-0.57
2019-02-17T03:44:38.281Z,-0.59
2019-02-17T03:47:07.077Z,-0.51
2019-02-17T03:49:36.030Z,-0.42
2019-02-17T03:52:04.923Z,-0.38
2019-02-17T03:54:33.803Z,-0.16
2019-02-17T03:57:03.379Z,-0.07
2019-02-17T03:59:32.205Z,-0.20
2019-02-17T04:02:01.015Z,-0.28
2019-02-17T04:04:29.808Z,-0.21
2019-02-17T04:06:58.633Z,-0.36
2019-02-17T04:09:27.524Z,-0.49
2019-02-17T04:11:56.351Z,-0.69
2019-02-17T04:14:25.233Z,-0.70
2019-02-17T04:16:54.116Z,-0.74
2019-02-17T04:19:22.921Z,-0.79
2019-02-17T04:21:51.723Z,-0.77
2019-02-17T04:24:20.517Z,-0.73
2019-02-17T04:26:49.390Z,-0.67
2019-02-17T04:29:18.186Z,-0.69
2019-02-17T04:31:47.070Z,-0.85
2019-02-17T04:34:15.948Z,-0.92
2019-02-17T04:36:44.758Z,-0.89
2019-02-17T04:39:13.729Z,-0.94
2019-02-17T04:41:42.594Z,-0.84
2019-02-17T04:44:11.382Z,-0.91
2019-02-17T04:46:40.185Z,-0.92
2019-02-17T04:49:08.990Z,-0.92
2019-02-17T04:51:37.795Z,-1.05
2019-02-17T04:54:06.592Z,-0.94
2019-02-17T04:56:35.807Z,-0.99
2019-02-17T04:59:04.730Z,-0.98
2019-02-17T05:01:33.729Z,-1.11
2019-02-17T05:04:02.668Z,-1.14
2019-02-17T05:06:31.527Z,-1.19
2019-02-17T05:09:00.423Z,-1.18
2019-02-17T05:11:29.252Z,-1.26
2019-02-17T05:13:58.057Z,-1.27
2019-02-17T05:16:26.910Z,-1.38
2019-02-17T05:18:55.730Z,-1.50
2019-02-17T05:21:24.533Z,-1.57
2019-02-17T05:23:53.428Z,-1.65
2019-02-17T05:26:22.221Z,-1.70
2019-02-17T05:28:51.042Z,-1.63
2019-02-17T05:31:19.845Z,-1.55
2019-02-17T05:33:48.794Z,-1.54
2019-02-17T05:36:17.771Z,-1.53
2019-02-17T05:38:46.631Z,-1.52
2019-02-17T05:41:15.447Z,-1.43
2019-02-17T05:43:44.231Z,-1.37
2019-02-17T05:46:13.028Z,-1.42
2019-02-17T05:48:41.909Z,-1.39
2019-02-17T05:51:10.735Z,-1.27
2019-02-17T05:53:39.525Z,-1.17
2019-02-17T05:56:08.344Z,-1.24
2019-02-17T05:58:38.095Z,-1.22
2019-02-17T06:01:07.488Z,-1.16
2019-02-17T06:03:36.413Z,-1.25
2019-02-17T06:06:05.290Z,-1.28
2019-02-17T06:08:34.094Z,-1.15
2019-02-17T06:11:02.909Z,-1.11
2019-02-17T06:13:31.804Z,-1.10
2019-02-17T06:16:00.592Z,-1.10
2019-02-17T06:18:29.393Z,-1.18
2019-02-17T06:20:58.383Z,-0.88
2019-02-17T06:23:27.188Z,-0.94
2019-02-17T06:25:55.989Z,-0.93
2019-02-17T06:28:24.770Z,-0.80
2019-02-17T06:30:53.561Z,-0.77
2019-02-17T06:33:22.347Z,-0.79
2019-02-17T06:35:51.279Z,-0.77
2019-02-17T06:38:20.090Z,-0.98
2019-02-17T06:40:48.874Z,-1.25
2019-02-17T06:43:17.775Z,-1.16
2019-02-17T06:45:46.573Z,-1.18
2019-02-17T06:48:15.361Z,-1.02
2019-02-17T06:50:44.233Z,-0.89
2019-02-17T06:53:13.062Z,-0.82
2019-02-17T06:55:56.454Z,-0.72
2019-02-17T06:58:25.257Z,-0.64
2019-02-17T07:00:56.118Z,-0.71
2019-02-17T07:03:24.918Z,-0.66
2019-02-17T07:06:12.670Z,-0.63
2019-02-17T07:08:41.531Z,-0.52
2019-02-17T07:11:11.229Z,-0.41
2019-02-17T07:13:40.041Z,-0.41
2019-02-17T07:16:08.818Z,-0.41
2019-02-17T07:18:37.627Z,-0.31
2019-02-17T07:21:06.413Z,-0.20
2019-02-17T07:23:35.223Z,-0.50
2019-02-17T07:26:04.030Z,-0.45
2019-02-17T07:28:32.836Z,-0.51
2019-02-17T07:31:01.619Z,-0.45
2019-02-17T07:33:30.431Z,-0.33
2019-02-17T07:35:59.290Z,-0.17
2019-02-17T07:38:28.086Z,-0.04
2019-02-17T07:40:56.950Z,0.04
2019-02-17T07:43:25.754Z,0.08
2019-02-17T07:45:54.536Z,0.27
2019-02-17T07:48:23.332Z,0.42
2019-02-17T07:50:52.409Z,0.30
2019-02-17T07:53:21.231Z,0.42
2019-02-17T07:55:50.018Z,0.41
2019-02-17T07:58:18.833Z,0.38
2019-02-17T08:00:47.630Z,0.39
2019-02-17T08:03:16.429Z,0.38
2019-02-17T08:05:45.230Z,0.63
2019-02-17T08:08:14.008Z,0.56
2019-02-17T08:10:42.805Z,0.80
2019-02-17T08:13:11.583Z,0.76
2019-02-17T08:15:40.387Z,0.82
2019-02-17T08:18:09.174Z,0.79
2019-02-17T08:20:37.955Z,0.84
2019-02-17T08:23:06.744Z,0.82
2019-02-17T08:25:35.543Z,0.88
2019-02-17T08:28:04.444Z,1.08
2019-02-17T08:30:33.319Z,1.08
2019-02-17T08:33:02.104Z,1.23
2019-02-17T08:35:30.986Z,1.54
2019-02-17T08:37:59.785Z,1.54
2019-02-17T08:40:28.581Z,1.69
2019-02-17T08:42:57.374Z,1.71
2019-02-17T08:45:26.250Z,1.75
2019-02-17T08:47:55.032Z,1.88
2019-02-17T08:50:23.844Z,2.05
2019-02-17T08:52:52.634Z,2.22
2019-02-17T08:55:21.427Z,2.36
2019-02-17T08:57:50.205Z,2.37
2019-02-17T09:00:19.086Z,2.47
2019-02-17T09:02:48.088Z,2.48
2019-02-17T09:05:17.016Z,2.63
2019-02-17T09:07:46.756Z,2.70
2019-02-17T09:10:15.713Z,2.79
2019-02-17T09:12:44.505Z,2.97
2019-02-17T09:15:13.472Z,3.04
2019-02-17T09:17:42.282Z,3.12
2019-02-17T09:20:11.503Z,3.27
2019-02-17T09:22:40.712Z,3.44
2019-02-17T09:25:10.567Z,3.60
2019-02-17T09:27:39.522Z,3.64
2019-02-17T09:30:11.906Z,3.74
2019-02-17T09:32:40.693Z,3.89
2019-02-17T09:35:09.614Z,4.05
2019-02-17T09:37:38.486Z,4.22
2019-02-17T09:40:09.291Z,4.31
2019-02-17T09:42:38.090Z,4.41
2019-02-17T09:45:07.935Z,4.46
2019-02-17T09:47:36.803Z,4.70
2019-02-17T09:50:06.667Z,4.79
2019-02-17T09:52:35.476Z,4.96
2019-02-17T09:55:04.350Z,5.10
2019-02-17T09:57:33.171Z,4.94
2019-02-17T10:00:01.966Z,5.10
2019-02-17T10:02:30.752Z,5.24
2019-02-17T10:04:59.602Z,5.40
2019-02-17T10:07:28.472Z,5.48
2019-02-17T10:09:57.277Z,5.69
2019-02-17T10:12:26.150Z,5.84
2019-02-17T10:14:54.941Z,5.97
2019-02-17T10:17:23.727Z,6.06
2019-02-17T10:19:52.697Z,6.21
2019-02-17T10:22:21.493Z,6.25
2019-02-17T10:24:50.265Z,6.49
2019-02-17T10:27:19.076Z,6.57
2019-02-17T10:29:48.820Z,6.74
2019-02-17T10:32:17.615Z,6.70
2019-02-17T10:34:46.385Z,6.87
2019-02-17T10:37:15.176Z,6.92
2019-02-17T10:39:44.299Z,7.14
2019-02-17T10:42:13.168Z,7.30
2019-02-17T10:44:41.984Z,7.40
2019-02-17T10:47:10.794Z,7.59
2019-02-17T10:49:39.644Z,7.82
2019-02-17T10:52:08.594Z,8.05
2019-02-17T10:54:37.382Z,8.19
2019-02-17T10:57:06.332Z,8.37
2019-02-17T10:59:35.139Z,8.50
2019-02-17T11:02:04.004Z,8.67
2019-02-17T11:04:32.790Z,8.75
2019-02-17T11:07:01.682Z,8.82
2019-02-17T11:09:30.542Z,8.89
2019-02-17T11:11:59.329Z,9.05
2019-02-17T11:14:28.198Z,9.33
2019-02-17T11:16:56.994Z,9.38
2019-02-17T11:19:25.780Z,9.55
2019-02-17T11:21:54.567Z,9.72
2019-02-17T11:24:23.443Z,9.89
2019-02-17T11:26:52.295Z,10.00
2019-02-17T11:29:21.345Z,10.10
2019-02-17T11:31:50.492Z,10.26
2019-02-17T11:34:19.283Z,10.34
2019-02-17T11:36:48.070Z,10.48
2019-02-17T11:39:20.930Z,10.60
2019-02-17T11:41:50.726Z,10.65
2019-02-17T11:44:19.541Z,11.09
2019-02-17T11:46:48.413Z,11.09
2019-02-17T11:49:17.213Z,11.27
2019-02-17T11:51:45.996Z,11.37
2019-02-17T11:54:14.860Z,11.46
2019-02-17T11:56:43.715Z,11.55
2019-02-17T11:59:12.509Z,11.60
2019-02-17T12:01:41.365Z,11.68
2019-02-17T12:04:10.156Z,11.84
2019-02-17T12:06:39.020Z,11.92
2019-02-17T12:09:09.147Z,12.02
2019-02-17T12:11:38.035Z,12.13
2019-02-17T12:14:06.912Z,12.26
2019-02-17T12:16:37.230Z,12.33
2019-02-17T12:19:08.896Z,12.47
2019-02-17T12:21:55.437Z,12.62
2019-02-17T12:24:43.368Z,12.92
2019-02-17T12:27:19.985Z,12.91
2019-02-17T12:29:55.609Z,13.09
2019-02-17T12:32:29.282Z,13.32
2019-02-17T12:34:58.094Z,13.48
2019-02-17T12:37:26.933Z,13.67
2019-02-17T12:39:55.722Z,13.56
2019-02-17T12:42:24.635Z,13.62
2019-02-17T12:44:53.433Z,13.64
2019-02-17T12:47:22.600Z,13.77
2019-02-17T12:49:51.390Z,13.86
2019-02-17T12:52:21.348Z,13.81
2019-02-17T12:54:50.135Z,13.81
2019-02-17T12:57:18.927Z,13.95
2019-02-17T12:59:47.720Z,14.07
2019-02-17T13:02:16.503Z,14.04
2019-02-17T13:04:45.291Z,14.08
2019-02-17T13:07:14.158Z,14.14
2019-02-17T13:09:42.989Z,14.18
2019-02-17T13:12:11.771Z,14.29
2019-02-17T13:14:40.566Z,14.49
2019-02-17T13:17:09.359Z,14.45
2019-02-17T13:19:38.295Z,14.55
2019-02-17T13:22:07.082Z,14.54
2019-02-17T13:24:35.875Z,14.60
2019-02-17T13:27:04.746Z,14.77
2019-02-17T13:29:33.576Z,14.77
2019-02-17T13:32:02.374Z,14.87
2019-02-17T13:34:31.242Z,14.84
2019-02-17T13:37:00.063Z,14.93
2019-02-17T13:39:30.476Z,14.96
2019-02-17T13:41:59.232Z,15.00
2019-02-17T13:44:28.134Z,15.06
2019-02-17T13:46:56.982Z,15.12
2019-02-17T13:49:25.781Z,15.24
2019-02-17T13:51:54.788Z,15.27
2019-02-17T13:54:23.664Z,15.35
2019-02-17T13:56:52.446Z,15.45
2019-02-17T13:59:21.305Z,15.53
2019-02-17T14:01:50.224Z,15.60
2019-02-17T14:04:19.057Z,15.67
2019-02-17T14:06:47.947Z,15.65
2019-02-17T14:09:16.744Z,15.74
2019-02-17T14:11:45.532Z,15.70
2019-02-17T14:14:14.394Z,15.75
2019-02-17T14:16:43.179Z,15.61
2019-02-17T14:19:11.991Z,15.66
2019-02-17T14:21:40.790Z,15.71
2019-02-17T14:24:09.698Z,15.63
2019-02-17T14:26:38.519Z,15.49
2019-02-17T14:29:07.302Z,15.52
2019-02-17T14:31:36.167Z,15.52
2019-02-17T14:34:05.142Z,15.58
2019-02-17T14:36:34.007Z,15.67
2019-02-17T14:39:03.016Z,15.68
2019-02-17T14:41:31.803Z,15.72
2019-02-17T14:44:00.593Z,15.64
2019-02-17T14:46:29.377Z,15.54
2019-02-17T14:48:58.174Z,15.49
2019-02-17T14:51:26.958Z,15.55
2019-02-17T14:53:56.768Z,15.49
2019-02-17T14:56:25.554Z,15.48
2019-02-17T14:58:54.331Z,15.48
2019-02-17T15:01:23.109Z,15.43
2019-02-17T15:03:51.897Z,15.50
2019-02-17T15:06:20.693Z,15.39
2019-02-17T15:08:49.465Z,15.37
2019-02-17T15:11:18.285Z,15.36
2019-02-17T15:13:47.076Z,15.33
2019-02-17T15:16:15.872Z,15.30
2019-02-17T15:18:44.725Z,15.29
2019-02-17T15:21:13.541Z,15.29
2019-02-17T15:23:42.344Z,15.18
2019-02-17T15:26:11.214Z,15.15
2019-02-17T15:28:40.109Z,15.15
2019-02-17T15:31:08.983Z,15.22
2019-02-17T15:33:37.844Z,15.24
2019-02-17T15:36:06.630Z,15.13
2019-02-17T15:38:35.608Z,15.09
2019-02-17T15:41:04.770Z,14.98
2019-02-17T15:43:33.670Z,14.97
2019-02-17T15:46:02.673Z,14.92
2019-02-17T15:48:31.576Z,14.87
2019-02-17T15:51:06.449Z,14.85
2019-02-17T15:53:31.161Z,14.70
2019-02-17T15:55:59.998Z,14.55
2019-02-17T15:58:28.872Z,14.57
2019-02-17T16:00:57.790Z,14.50
2019-02-17T16:03:26.579Z,14.46
2019-02-17T16:05:55.454Z,14.36
2019-02-17T16:08:24.330Z,14.39
2019-02-17T16:10:53.268Z,14.35
2019-02-17T16:13:22.043Z,14.16
2019-02-17T16:15:50.836Z,14.06
2019-02-17T16:18:19.610Z,14.05
2019-02-17T16:20:48.405Z,14.01
2019-02-17T16:23:17.180Z,13.96
2019-02-17T16:25:46.047Z,13.85
2019-02-17T16:28:14.833Z,13.72
2019-02-17T16:30:43.713Z,13.55
2019-02-17T16:33:12.502Z,13.28
2019-02-17T16:35:41.326Z,13.28
2019-02-17T16:38:10.098Z,13.26
2019-02-17T16:40:38.887Z,13.27
2019-02-17T16:43:07.746Z,13.23
2019-02-17T16:45:36.537Z,13.19
2019-02-17T16:48:05.388Z,13.18
2019-02-17T16:50:34.334Z,13.15
2019-02-17T16:53:03.204Z,13.01
2019-02-17T16:55:32.018Z,12.95
2019-02-17T16:58:01.142Z,12.92
2019-02-17T17:00:30.490Z,12.83
2019-02-17T17:02:59.301Z,12.72
2019-02-17T17:05:28.235Z,12.80
2019-02-17T17:07:57.117Z,12.73
2019-02-17T17:10:25.985Z,12.62
2019-02-17T17:12:54.782Z,12.57
2019-02-17T17:15:23.633Z,12.51
2019-02-17T17:17:52.499Z,12.47
2019-02-17T17:20:21.410Z,12.37
2019-02-17T17:22:50.276Z,12.18
2019-02-17T17:25:19.822Z,11.94
2019-02-17T17:27:48.620Z,11.74
2019-02-17T17:30:17.574Z,11.59
2019-02-17T17:32:46.525Z,11.34
2019-02-17T17:35:15.483Z,11.09
2019-02-17T17:37:44.322Z,10.89
2019-02-17T17:40:13.218Z,10.78
2019-02-17T17:42:42.096Z,10.65
2019-02-17T17:45:12.662Z,10.56
2019-02-17T17:47:41.448Z,10.48
2019-02-17T17:50:11.795Z,10.31
2019-02-17T17:52:40.626Z,10.23
2019-02-17T17:55:10.736Z,10.13
2019-02-17T17:57:39.545Z,10.00
2019-02-17T18:00:10.088Z,9.94
2019-02-17T18:02:38.951Z,9.81
2019-02-17T18:05:09.578Z,9.56
2019-02-17T18:07:38.536Z,9.43
2019-02-17T18:10:08.918Z,9.21
2019-02-17T18:12:37.759Z,8.98
2019-02-17T18:15:07.625Z,8.73
2019-02-17T18:17:36.558Z,8.62
2019-02-17T18:20:05.772Z,8.51
2019-02-17T18:22:34.634Z,8.40
2019-02-17T18:25:04.545Z,8.33
2019-02-17T18:27:33.419Z,8.29
2019-02-17T18:30:02.348Z,8.26
2019-02-17T18:32:31.160Z,8.23
2019-02-17T18:34:59.934Z,8.15
2019-02-17T18:37:28.719Z,8.10
2019-02-17T18:39:57.509Z,8.01
2019-02-17T18:42:26.297Z,7.93
2019-02-17T18:44:55.063Z,7.91
2019-02-17T18:47:23.878Z,7.79
2019-02-17T18:49:52.669Z,7.78
2019-02-17T18:52:21.455Z,7.79
2019-02-17T18:54:50.250Z,7.72
2019-02-17T18:57:19.393Z,7.73
2019-02-17T18:59:48.174Z,7.60
2019-02-17T19:02:16.957Z,7.46
2019-02-17T19:04:45.747Z,7.33
2019-02-17T19:07:14.600Z,7.27
2019-02-17T19:09:43.398Z,7.25
2019-02-17T19:12:12.166Z,7.22
2019-02-17T19:14:40.955Z,7.26
2019-02-17T19:17:09.807Z,7.23
2019-02-17T19:19:38.599Z,7.21
2019-02-17T19:22:07.676Z,6.84
2019-02-17T19:24:37.097Z,6.74
2019-02-17T19:27:09.668Z,6.78
2019-02-17T19:29:38.528Z,6.84
2019-02-17T19:32:07.392Z,6.98
2019-02-17T19:34:37.087Z,7.12
2019-02-17T19:37:05.892Z,7.21
2019-02-17T19:39:34.714Z,7.33
2019-02-17T19:42:03.597Z,7.29
2019-02-17T19:44:32.432Z,6.83
2019-02-17T19:47:01.276Z,6.70
2019-02-17T19:49:33.647Z,6.69
2019-02-17T19:52:02.290Z,6.63
2019-02-17T19:54:31.095Z,6.55
2019-02-17T19:57:00.048Z,6.44
2019-02-17T19:59:31.163Z,6.44
2019-02-17T20:01:59.326Z,6.36
2019-02-17T20:04:38.444Z,6.27
2019-02-17T20:07:07.335Z,6.14
2019-02-17T20:09:36.127Z,6.06
2019-02-17T20:12:05.012Z,6.06
2019-02-17T20:14:33.870Z,5.80
2019-02-17T20:17:02.721Z,5.64
2019-02-17T20:19:31.609Z,5.43
2019-02-17T20:22:00.548Z,5.17
2019-02-17T20:24:29.434Z,4.94
2019-02-17T20:26:58.228Z,4.86
2019-02-17T20:29:27.079Z,4.86
2019-02-17T20:31:55.862Z,4.77
2019-02-17T20:34:24.750Z,4.66
2019-02-17T20:36:53.526Z,4.50
2019-02-17T20:39:22.392Z,4.44
2019-02-17T20:41:51.213Z,4.35
2019-02-17T20:44:20.047Z,4.40
2019-02-17T20:46:48.886Z,4.30
2019-02-17T20:49:17.699Z,4.31
2019-02-17T20:51:46.500Z,4.32
2019-02-17T20:54:15.293Z,4.31
2019-02-17T20:56:44.144Z,4.40
2019-02-17T20:59:12.994Z,4.40
2019-02-17T21:01:41.839Z,4.45
2019-02-17T21:04:10.758Z,4.41
2019-02-17T21:06:39.606Z,4.36
2019-02-17T21:09:08.583Z,4.39
2019-02-17T21:11:37.386Z,4.34
2019-02-17T21:14:06.246Z,4.13
2019-02-17T21:16:35.177Z,3.96
2019-02-17T21:19:04.049Z,3.92
2019-02-17T21:21:32.863Z,3.91
2019-02-17T21:24:01.715Z,3.84
2019-02-17T21:26:30.506Z,3.78
2019-02-17T21:28:59.289Z,3.78
2019-02-17T21:31:28.148Z,3.52
2019-02-17T21:33:56.920Z,3.33
2019-02-17T21:36:25.706Z,3.35
2019-02-17T21:38:54.494Z,3.28
2019-02-17T21:41:23.364Z,3.16
2019-02-17T21:43:52.148Z,3.17
2019-02-17T21:46:21.041Z,3.07
2019-02-17T21:48:49.825Z,2.95
2019-02-17T21:51:18.623Z,3.08
2019-02-17T21:53:47.409Z,3.20
2019-02-17T21:56:16.198Z,3.44
2019-02-17T21:58:44.974Z,3.43
2019-02-17T22:02:42.181Z,3.43
2019-02-17T22:05:11.127Z,3.31
2019-02-17T22:07:40.012Z,3.46
2019-02-17T22:10:09.873Z,3.43
2019-02-17T22:12:38.882Z,3.07
2019-02-17T22:15:10.021Z,2.80
2019-02-17T22:17:38.794Z,2.64
2019-02-17T22:20:08.417Z,2.50
2019-02-17T22:22:37.362Z,2.48
2019-02-17T22:25:06.707Z,2.44
2019-02-17T22:27:35.591Z,2.53
2019-02-17T22:30:05.268Z,2.25
2019-02-17T22:32:34.120Z,2.18
2019-02-17T22:35:03.222Z,2.08
2019-02-17T22:37:32.016Z,1.95
2019-02-17T22:40:00.803Z,1.92
2019-02-17T22:42:29.599Z,2.02
2019-02-17T22:44:58.367Z,1.85
2019-02-17T22:47:27.166Z,1.84
2019-02-17T22:49:55.955Z,1.92
2019-02-17T22:52:24.745Z,1.86
2019-02-17T22:54:53.536Z,1.82
2019-02-17T22:57:22.383Z,1.76
2019-02-17T22:59:51.231Z,1.74
2019-02-17T23:02:20.225Z,1.70
2019-02-17T23:04:49.009Z,1.69
2019-02-17T23:07:18.295Z,1.79
2019-02-17T23:09:47.095Z,1.72
2019-02-17T23:12:16.731Z,1.73
2019-02-17T23:14:45.550Z,1.76
2019-02-17T23:17:14.435Z,1.70
2019-02-17T23:19:43.232Z,1.72
2019-02-17T23:22:11.994Z,1.62
2019-02-17T23:24:40.919Z,1.59
2019-02-17T23:27:09.794Z,1.54
2019-02-17T23:29:38.569Z,1.46
2019-02-17T23:32:07.514Z,1.41
2019-02-17T23:34:36.301Z,1.44
2019-02-17T23:37:05.674Z,1.41
2019-02-17T23:39:34.514Z,1.42
2019-02-17T23:42:03.302Z,1.47
2019-02-17T23:44:32.293Z,1.61
2019-02-17T23:47:01.163Z,1.69
2019-02-17T23:49:31.121Z,1.68
2019-02-17T23:51:59.987Z,1.64
2019-02-17T23:54:28.861Z,1.54
2019-02-17T23:56:57.658Z,1.41
2019-02-17T23:59:26.434Z,1.38
